Terminal Aerodrome Forecast
Issued by NWS North Platte, NE

Home | Current Version | Previous Version | Text Only | Print | Product List | Glossary Off
Versions: 1 2 3 4 5 6 7 8 9 10 11 12 13 14 15 16 17 18 19 20 21 22

958
FTUS43 KLBF 282327
TAFVTN
TAF
KVTN 282327Z 2900/2924 35009KT P6SM OVC012
     FM290700 36004KT 4SM BR OVC005
     FM290900 02006KT 2SM BR OVC003
     FM291700 05008KT P6SM OVC009
     FM292100 05012KT 4SM -RA BR OVC015=

USA.gov is the U.S. government's official web portal to all federal, state and local government web resources and services.